createdAt,value
2022-09-22T00:01:26.954Z,97481.00
2022-09-22T00:04:00.276Z,97484.00
2022-09-22T00:06:30.261Z,97487.00
2022-09-22T00:09:00.705Z,97487.00
2022-09-22T00:11:36.009Z,97487.00
2022-09-22T00:14:10.713Z,97487.00
2022-09-22T00:16:41.962Z,97490.00
2022-09-22T00:19:09.840Z,97492.00
2022-09-22T00:21:37.207Z,97485.00
2022-09-22T00:24:07.284Z,97482.00
2022-09-22T00:26:35.670Z,97482.00
2022-09-22T00:29:03.479Z,97483.00
2022-09-22T00:31:30.738Z,97475.00
2022-09-22T00:33:58.415Z,97477.00
2022-09-22T00:36:26.962Z,97487.00
2022-09-22T00:38:56.362Z,97483.00
2022-09-22T00:41:35.866Z,97480.00
2022-09-22T00:44:38.815Z,97475.00
2022-09-22T00:47:16.252Z,97473.00
2022-09-22T00:50:17.662Z,97470.00
2022-09-22T00:53:07.073Z,97467.00
2022-09-22T00:55:53.518Z,97477.00
2022-09-22T00:58:27.195Z,97477.00
2022-09-22T01:00:54.478Z,97471.00
2022-09-22T01:03:27.580Z,97464.00
2022-09-22T01:06:36.414Z,97460.00
2022-09-22T01:09:28.806Z,97459.00
2022-09-22T01:12:28.739Z,97459.00
2022-09-22T01:15:32.534Z,97458.00
2022-09-22T01:18:30.363Z,97455.00
2022-09-22T01:21:30.233Z,97450.00
2022-09-22T01:24:43.734Z,97449.00
2022-09-22T01:28:13.594Z,97449.00
2022-09-22T01:31:19.595Z,97457.00
2022-09-22T01:33:55.204Z,97452.00
2022-09-22T01:36:35.732Z,97448.00
2022-09-22T01:39:15.863Z,97442.00
2022-09-22T01:41:51.514Z,97440.00
2022-09-22T01:45:41.907Z,97438.00
2022-09-22T01:48:40.544Z,97443.00
2022-09-22T01:51:40.284Z,97440.00
2022-09-22T01:54:41.734Z,97436.00
2022-09-22T01:57:30.414Z,97437.00
2022-09-22T02:00:03.472Z,97441.00
2022-09-22T02:02:42.768Z,97439.00
2022-09-22T02:05:17.049Z,97430.00
2022-09-22T02:07:48.647Z,97438.00
2022-09-22T02:10:18.697Z,97447.00
2022-09-22T02:12:47.513Z,97449.00
2022-09-22T02:15:34.986Z,97438.00
2022-09-22T02:18:07.652Z,97440.00
2022-09-22T02:20:35.038Z,97442.00
2022-09-22T02:23:02.151Z,97446.00
2022-09-22T02:25:29.638Z,97444.00
2022-09-22T02:27:57.078Z,97433.00
2022-09-22T02:30:24.733Z,97442.00
2022-09-22T02:32:54.077Z,97450.00
2022-09-22T02:35:21.681Z,97443.00
2022-09-22T02:38:03.781Z,97440.00
2022-09-22T02:40:44.129Z,97450.00
2022-09-22T02:43:35.595Z,97445.00
2022-09-22T02:46:09.611Z,97445.00
2022-09-22T02:48:44.057Z,97456.00
2022-09-22T02:51:11.607Z,97446.00
2022-09-22T02:53:38.748Z,97442.00
2022-09-22T02:56:06.122Z,97452.00
2022-09-22T02:58:33.422Z,97458.00
2022-09-22T03:01:00.562Z,97456.00
2022-09-22T03:03:27.738Z,97459.00
2022-09-22T03:05:54.856Z,97454.00
2022-09-22T03:08:21.999Z,97453.00
2022-09-22T03:10:49.161Z,97451.00
2022-09-22T03:13:17.409Z,97448.00
2022-09-22T03:15:45.783Z,97447.00
2022-09-22T03:18:13.772Z,97450.00
2022-09-22T03:20:40.993Z,97444.00
2022-09-22T03:23:08.207Z,97439.00
2022-09-22T03:25:35.615Z,97442.00
2022-09-22T03:28:02.961Z,97443.00
2022-09-22T03:30:30.151Z,97438.00
2022-09-22T03:32:57.637Z,97444.00
2022-09-22T03:35:24.814Z,97447.00
2022-09-22T03:37:51.989Z,97437.00
2022-09-22T03:40:19.190Z,97437.00
2022-09-22T03:42:46.385Z,97438.00
2022-09-22T03:45:14.982Z,97440.00
2022-09-22T03:47:42.369Z,97435.00
2022-09-22T03:50:10.138Z,97446.00
2022-09-22T03:52:37.383Z,97435.00
2022-09-22T03:55:04.821Z,97430.00
2022-09-22T03:57:31.989Z,97429.00
2022-09-22T03:59:59.213Z,97431.00
2022-09-22T04:02:26.455Z,97425.00
2022-09-22T04:04:53.735Z,97434.00
2022-09-22T04:07:20.865Z,97431.00
2022-09-22T04:09:48.020Z,97427.00
2022-09-22T04:12:15.148Z,97431.00
2022-09-22T04:14:42.299Z,97428.00
2022-09-22T04:17:09.439Z,97432.00
2022-09-22T04:19:36.592Z,97433.00
2022-09-22T04:22:04.312Z,97428.00
2022-09-22T04:24:31.622Z,97426.00
2022-09-22T04:29:45.948Z,97433.00
2022-09-22T04:32:14.046Z,97423.00
2022-09-22T04:34:41.278Z,97425.00
2022-09-22T04:37:08.787Z,97416.00
2022-09-22T04:39:36.343Z,97425.00
2022-09-22T04:42:04.164Z,97420.00
2022-09-22T04:44:35.018Z,97422.00
2022-09-22T04:47:02.984Z,97423.00
2022-09-22T04:49:30.840Z,97417.00
2022-09-22T04:51:58.044Z,97420.00
2022-09-22T04:54:25.153Z,97421.00
2022-09-22T04:56:52.317Z,97418.00
2022-09-22T04:59:19.479Z,97417.00
2022-09-22T05:01:46.662Z,97412.00
2022-09-22T05:04:14.262Z,97418.00
2022-09-22T05:06:42.089Z,97418.00
2022-09-22T05:09:09.269Z,97427.00
2022-09-22T05:11:36.588Z,97423.00
2022-09-22T05:14:03.777Z,97425.00
2022-09-22T05:16:32.062Z,97423.00
2022-09-22T05:18:59.419Z,97418.00
2022-09-22T05:21:26.583Z,97423.00
2022-09-22T05:23:55.139Z,97433.00
2022-09-22T05:26:22.458Z,97425.00
2022-09-22T05:28:51.214Z,97426.00
2022-09-22T05:31:18.663Z,97425.00
2022-09-22T05:33:46.256Z,97433.00
2022-09-22T05:36:13.390Z,97435.00
2022-09-22T05:38:40.730Z,97429.00
2022-09-22T05:41:07.885Z,97430.00
2022-09-22T05:43:35.161Z,97427.00
2022-09-22T05:46:02.323Z,97433.00
2022-09-22T05:48:31.474Z,97432.00
2022-09-22T05:50:58.934Z,97434.00
2022-09-22T05:53:26.087Z,97438.00
2022-09-22T05:55:53.741Z,97435.00
2022-09-22T05:58:20.926Z,97436.00
2022-09-22T06:00:48.129Z,97434.00
2022-09-22T06:03:15.440Z,97432.00
2022-09-22T06:05:43.935Z,97435.00
2022-09-22T06:08:11.169Z,97433.00
2022-09-22T06:10:39.119Z,97429.00
2022-09-22T06:13:08.018Z,97429.00
2022-09-22T06:15:36.142Z,97434.00
2022-09-22T06:18:11.862Z,97426.00
2022-09-22T06:20:41.955Z,97431.00
2022-09-22T06:23:09.158Z,97430.00
2022-09-22T06:25:36.325Z,97420.00
2022-09-22T06:28:07.687Z,97422.00
2022-09-22T06:30:36.733Z,97428.00
2022-09-22T06:33:03.901Z,97425.00
2022-09-22T06:35:37.431Z,97427.00
2022-09-22T06:38:09.623Z,97425.00
2022-09-22T06:40:36.904Z,97429.00
2022-09-22T06:43:12.751Z,97430.00
2022-09-22T06:45:40.827Z,97429.00
2022-09-22T06:48:10.455Z,97427.00
2022-09-22T06:50:40.627Z,97428.00
2022-09-22T06:53:11.163Z,97428.00
2022-09-22T06:55:41.462Z,97429.00
2022-09-22T06:58:09.979Z,97421.00
2022-09-22T07:00:37.306Z,97429.00
2022-09-22T07:03:08.512Z,97428.00
2022-09-22T07:05:36.952Z,97431.00
2022-09-22T07:08:08.724Z,97422.00
2022-09-22T07:10:38.680Z,97423.00
2022-09-22T07:13:06.207Z,97432.00
2022-09-22T07:15:34.820Z,97422.00
2022-09-22T07:18:02.947Z,97429.00
2022-09-22T07:20:30.349Z,97434.00
2022-09-22T07:23:00.638Z,97433.00
2022-09-22T07:25:28.950Z,97433.00
2022-09-22T07:28:04.963Z,97430.00
2022-09-22T07:30:36.134Z,97427.00
2022-09-22T07:33:03.420Z,97425.00
2022-09-22T07:35:31.639Z,97435.00
2022-09-22T07:38:03.526Z,97435.00
2022-09-22T07:40:31.169Z,97431.00
2022-09-22T07:42:58.346Z,97435.00
2022-09-22T07:45:25.490Z,97428.00
2022-09-22T07:48:11.339Z,97429.00
2022-09-22T07:50:38.479Z,97422.00
2022-09-22T07:53:05.735Z,97429.00
2022-09-22T07:55:34.614Z,97430.00
2022-09-22T07:58:01.891Z,97427.00
2022-09-22T08:00:33.562Z,97423.00
2022-09-22T08:03:01.242Z,97423.00
2022-09-22T08:05:29.558Z,97426.00
2022-09-22T08:07:58.229Z,97420.00
2022-09-22T08:10:26.138Z,97419.00
2022-09-22T08:12:57.974Z,97415.00
2022-09-22T08:15:27.375Z,97417.00
2022-09-22T08:17:58.153Z,97419.00
2022-09-22T08:20:28.828Z,97415.00
2022-09-22T08:23:01.293Z,97428.00
2022-09-22T08:25:28.776Z,97422.00
2022-09-22T08:27:55.922Z,97419.00
2022-09-22T08:30:23.184Z,97418.00
2022-09-22T08:32:50.327Z,97425.00
2022-09-22T08:35:18.077Z,97423.00
2022-09-22T08:37:45.638Z,97418.00
2022-09-22T08:40:19.390Z,97418.00
2022-09-22T08:42:46.859Z,97422.00
2022-09-22T08:45:30.858Z,97429.00
2022-09-22T08:48:25.149Z,97428.00
2022-09-22T08:51:14.229Z,97430.00
2022-09-22T08:53:46.357Z,97430.00
2022-09-22T08:56:29.152Z,97437.00
2022-09-22T08:59:22.861Z,97425.00
2022-09-22T09:02:02.286Z,97434.00
2022-09-22T09:04:42.412Z,97427.00
2022-09-22T09:07:33.639Z,97423.00
2022-09-22T09:10:21.883Z,97428.00
2022-09-22T09:12:59.049Z,97432.00
2022-09-22T09:15:33.862Z,97421.00
2022-09-22T09:18:07.049Z,97419.00
2022-09-22T09:20:44.227Z,97430.00
2022-09-22T09:23:21.366Z,97425.00
2022-09-22T09:25:52.289Z,97427.00
2022-09-22T09:28:42.171Z,97429.00
2022-09-22T09:31:14.054Z,97431.00
2022-09-22T09:34:03.142Z,97427.00
2022-09-22T09:36:38.566Z,97425.00
2022-09-22T09:39:21.071Z,97421.00
2022-09-22T09:41:49.798Z,97421.00
2022-09-22T09:44:25.507Z,97411.00
2022-09-22T09:47:02.076Z,97411.00
2022-09-22T09:49:29.380Z,97409.00
2022-09-22T09:52:02.055Z,97405.00
2022-09-22T09:54:29.239Z,97413.00
2022-09-22T09:57:13.323Z,97415.00
2022-09-22T10:00:00.907Z,97406.00
2022-09-22T10:02:47.329Z,97410.00
2022-09-22T10:05:17.507Z,97411.00
2022-09-22T10:07:47.779Z,97407.00
2022-09-22T10:10:30.020Z,97409.00
2022-09-22T10:13:05.997Z,97401.00
2022-09-22T10:15:38.574Z,97398.00
2022-09-22T10:18:37.599Z,97407.00
2022-09-22T10:21:24.190Z,97394.00
2022-09-22T10:23:57.873Z,97391.00
2022-09-22T10:26:29.518Z,97391.00
2022-09-22T10:29:14.775Z,97392.00
2022-09-22T10:31:42.691Z,97392.00
2022-09-22T10:34:32.800Z,97394.00
2022-09-22T10:37:01.045Z,97387.00
2022-09-22T10:39:33.329Z,97384.00
2022-09-22T10:42:01.390Z,97382.00
2022-09-22T10:44:40.985Z,97382.00
2022-09-22T10:47:42.654Z,97381.00
2022-09-22T10:50:35.605Z,97375.00
2022-09-22T10:53:15.209Z,97385.00
2022-09-22T10:56:04.036Z,97378.00
2022-09-22T10:58:39.961Z,97370.00
2022-09-22T11:01:30.406Z,97375.00
2022-09-22T11:04:08.934Z,97374.00
2022-09-22T11:07:23.459Z,97370.00
2022-09-22T11:10:19.857Z,97371.00
2022-09-22T11:13:20.769Z,97361.00
2022-09-22T11:15:59.952Z,97362.00
2022-09-22T11:18:53.053Z,97357.00
2022-09-22T11:21:47.102Z,97359.00
2022-09-22T11:24:32.341Z,97344.00
2022-09-22T11:27:02.978Z,97354.00
2022-09-22T11:29:30.050Z,97351.00
2022-09-22T11:32:18.927Z,97357.00
2022-09-22T11:35:12.293Z,97347.00
2022-09-22T11:37:49.635Z,97362.00
2022-09-22T11:40:19.952Z,97349.00
2022-09-22T11:42:53.388Z,97350.00
2022-09-22T11:45:23.500Z,97345.00
2022-09-22T11:48:33.514Z,97340.00
2022-09-22T11:51:20.633Z,97342.00
2022-09-22T11:54:21.608Z,97339.00
2022-09-22T11:56:52.769Z,97342.00
2022-09-22T11:59:51.788Z,97337.00
2022-09-22T12:02:29.006Z,97325.00
2022-09-22T12:05:08.809Z,97330.00
2022-09-22T12:07:50.069Z,97334.00
2022-09-22T12:10:35.291Z,97329.00
2022-09-22T12:13:04.531Z,97326.00
2022-09-22T12:15:36.743Z,97325.00
2022-09-22T12:18:24.258Z,97318.00
2022-09-22T12:21:05.039Z,97313.00
2022-09-22T12:23:41.189Z,97314.00
2022-09-22T12:26:11.190Z,97306.00
2022-09-22T12:28:45.934Z,97306.00
2022-09-22T12:31:15.353Z,97312.00
2022-09-22T12:33:51.498Z,97306.00
2022-09-22T12:36:29.186Z,97303.00
2022-09-22T12:39:26.107Z,97299.00
2022-09-22T12:42:20.977Z,97294.00
2022-09-22T12:45:19.457Z,97294.00
2022-09-22T12:47:51.728Z,97296.00
2022-09-22T12:50:36.838Z,97285.00
2022-09-22T12:53:38.069Z,97287.00
2022-09-22T12:56:58.712Z,97287.00
2022-09-22T12:59:52.691Z,97275.00
2022-09-22T13:02:33.247Z,97271.00
2022-09-22T13:05:02.394Z,97275.00
2022-09-22T13:07:57.284Z,97277.00
2022-09-22T13:19:23.612Z,97277.00
2022-09-22T13:23:08.654Z,97275.00
2022-09-22T13:29:25.120Z,97264.00
2022-09-22T13:31:56.985Z,97270.00
2022-09-22T13:34:54.725Z,97264.00
2022-09-22T13:38:00.522Z,97260.00
2022-09-22T13:40:35.690Z,97262.00
2022-09-22T13:43:06.660Z,97247.00
2022-09-22T13:45:33.986Z,97252.00
2022-09-22T13:48:11.390Z,97260.00
2022-09-22T13:50:41.891Z,97248.00
2022-09-22T13:53:09.501Z,97246.00
2022-09-22T13:55:37.436Z,97241.00
2022-09-22T13:58:06.826Z,97242.00
2022-09-22T14:01:08.620Z,97238.00
2022-09-22T14:03:37.117Z,97239.00
2022-09-22T14:06:05.957Z,97238.00
2022-09-22T14:08:33.285Z,97232.00
2022-09-22T14:11:02.095Z,97239.00
2022-09-22T14:13:54.426Z,97235.00
2022-09-22T14:16:45.932Z,97235.00
2022-09-22T14:19:22.803Z,97230.00
2022-09-22T14:21:56.987Z,97232.00
2022-09-22T14:24:25.158Z,97231.00
2022-09-22T14:27:04.021Z,97220.00
2022-09-22T14:29:39.162Z,97221.00
2022-09-22T14:32:20.365Z,97223.00
2022-09-22T14:34:49.860Z,97223.00
2022-09-22T14:37:35.872Z,97215.00
2022-09-22T14:40:07.409Z,97211.00
2022-09-22T14:42:34.999Z,97213.00
2022-09-22T14:45:11.562Z,97209.00
2022-09-22T14:47:40.624Z,97207.00
2022-09-22T14:50:12.571Z,97208.00
2022-09-22T14:52:54.363Z,97202.00
2022-09-22T14:55:36.384Z,97207.00
2022-09-22T14:58:13.199Z,97201.00
2022-09-22T15:01:34.867Z,97203.00
2022-09-22T15:04:18.064Z,97205.00
2022-09-22T15:06:48.696Z,97203.00
2022-09-22T15:09:31.137Z,97205.00
2022-09-22T15:12:02.025Z,97204.00
2022-09-22T15:14:40.733Z,97202.00
2022-09-22T15:17:58.895Z,97197.00
2022-09-22T15:20:32.632Z,97199.00
2022-09-22T15:22:59.850Z,97196.00
2022-09-22T15:25:27.139Z,97193.00
2022-09-22T15:27:54.286Z,97186.00
2022-09-22T15:30:22.606Z,97189.00
2022-09-22T15:32:50.113Z,97191.00
2022-09-22T15:35:18.381Z,97185.00
2022-09-22T15:37:46.663Z,97192.00
2022-09-22T15:40:19.247Z,97189.00
2022-09-22T15:43:11.339Z,97183.00
2022-09-22T15:45:37.163Z,97186.00
2022-09-22T15:48:04.406Z,97189.00
2022-09-22T15:50:32.331Z,97184.00
2022-09-22T15:52:59.467Z,97183.00
2022-09-22T15:55:26.654Z,97190.00
2022-09-22T15:57:56.987Z,97187.00
2022-09-22T16:00:28.413Z,97189.00
2022-09-22T16:02:55.771Z,97188.00
2022-09-22T16:05:22.952Z,97196.00
2022-09-22T16:07:51.631Z,97191.00
2022-09-22T16:10:22.665Z,97189.00
2022-09-22T16:12:49.978Z,97194.00
2022-09-22T16:15:17.244Z,97193.00
2022-09-22T16:17:46.211Z,97196.00
2022-09-22T16:20:15.981Z,97199.00
2022-09-22T16:22:45.325Z,97192.00
2022-09-22T16:25:15.259Z,97194.00
2022-09-22T16:27:43.002Z,97195.00
2022-09-22T16:30:10.469Z,97203.00
2022-09-22T16:32:37.597Z,97199.00
2022-09-22T16:35:05.370Z,97196.00
2022-09-22T16:37:32.497Z,97199.00
2022-09-22T16:39:59.620Z,97198.00
2022-09-22T16:42:26.762Z,97206.00
2022-09-22T16:44:53.935Z,97201.00
2022-09-22T16:47:22.939Z,97199.00
2022-09-22T16:49:51.470Z,97194.00
2022-09-22T16:52:23.023Z,97199.00
2022-09-22T16:54:50.497Z,97204.00
2022-09-22T16:57:17.623Z,97202.00
2022-09-22T16:59:44.941Z,97199.00
2022-09-22T17:02:12.119Z,97199.00
2022-09-22T17:04:39.721Z,97196.00
2022-09-22T17:07:07.068Z,97194.00
2022-09-22T17:09:34.211Z,97195.00
2022-09-22T17:12:05.767Z,97198.00
2022-09-22T17:14:32.974Z,97194.00
2022-09-22T17:17:06.367Z,97198.00
2022-09-22T17:19:33.967Z,97187.00
2022-09-22T17:22:01.223Z,97200.00
2022-09-22T17:24:29.021Z,97190.00
2022-09-22T17:26:58.731Z,97202.00
2022-09-22T17:29:27.963Z,97206.00
2022-09-22T17:31:57.366Z,97202.00
2022-09-22T17:34:25.849Z,97201.00
2022-09-22T17:36:55.267Z,97203.00
2022-09-22T17:39:24.014Z,97205.00
2022-09-22T17:41:51.361Z,97208.00
2022-09-22T17:44:22.752Z,97214.00
2022-09-22T17:47:10.388Z,97215.00
2022-09-22T17:49:56.999Z,97216.00
2022-09-22T17:52:33.294Z,97220.00
2022-09-22T17:55:09.083Z,97220.00
2022-09-22T17:57:41.683Z,97224.00
2022-09-22T18:00:21.191Z,97229.00
2022-09-22T18:02:50.183Z,97223.00
2022-09-22T18:05:20.084Z,97230.00
2022-09-22T18:07:50.500Z,97232.00
2022-09-22T18:10:20.763Z,97232.00
2022-09-22T18:12:47.885Z,97232.00
2022-09-22T18:15:17.170Z,97228.00
2022-09-22T18:17:44.428Z,97238.00
2022-09-22T18:20:17.974Z,97233.00
2022-09-22T18:22:47.916Z,97233.00
2022-09-22T18:25:19.016Z,97237.00
2022-09-22T18:27:48.193Z,97238.00
2022-09-22T18:30:17.007Z,97232.00
2022-09-22T18:32:44.115Z,97224.00
2022-09-22T18:35:13.461Z,97224.00
2022-09-22T18:37:40.956Z,97227.00
2022-09-22T18:40:09.071Z,97225.00
2022-09-22T18:42:36.668Z,97229.00
2022-09-22T18:45:04.202Z,97235.00
2022-09-22T18:47:31.510Z,97230.00
2022-09-22T18:50:38.740Z,97237.00
2022-09-22T18:53:39.841Z,97233.00
2022-09-22T18:59:51.444Z,97244.00
2022-09-22T19:02:23.030Z,97239.00
2022-09-22T19:04:53.843Z,97243.00
2022-09-22T19:07:42.377Z,97246.00
2022-09-22T19:10:13.063Z,97244.00
2022-09-22T19:12:40.401Z,97249.00
2022-09-22T19:15:13.629Z,97244.00
2022-09-22T19:17:43.928Z,97232.00
2022-09-22T19:20:14.438Z,97235.00
2022-09-22T19:22:42.062Z,97234.00
2022-09-22T19:25:09.917Z,97232.00
2022-09-22T19:27:39.555Z,97229.00
2022-09-22T19:30:08.082Z,97234.00
2022-09-22T19:32:35.252Z,97228.00
2022-09-22T19:35:02.643Z,97230.00
2022-09-22T19:37:29.884Z,97225.00
2022-09-22T19:39:57.107Z,97218.00
2022-09-22T19:42:24.612Z,97219.00
2022-09-22T19:44:51.817Z,97223.00
2022-09-22T19:47:20.051Z,97224.00
2022-09-22T19:49:47.182Z,97220.00
2022-09-22T19:52:14.419Z,97215.00
2022-09-22T19:54:41.644Z,97214.00
2022-09-22T19:57:08.793Z,97217.00
2022-09-22T19:59:36.099Z,97217.00
2022-09-22T20:02:04.490Z,97216.00
2022-09-22T20:04:34.514Z,97213.00
2022-09-22T20:07:03.012Z,97217.00
2022-09-22T20:09:30.654Z,97210.00
2022-09-22T20:11:58.143Z,97212.00
2022-09-22T20:14:27.029Z,97214.00
2022-09-22T20:16:55.038Z,97216.00
2022-09-22T20:19:23.709Z,97213.00
2022-09-22T20:21:51.762Z,97210.00
2022-09-22T20:24:21.259Z,97212.00
2022-09-22T20:26:48.819Z,97209.00
2022-09-22T20:29:17.881Z,97204.00
2022-09-22T20:31:45.770Z,97205.00
2022-09-22T20:34:15.066Z,97199.00
2022-09-22T20:36:43.310Z,97200.00
2022-09-22T20:39:15.248Z,97204.00
2022-09-22T20:41:43.298Z,97208.00
2022-09-22T20:44:14.230Z,97206.00
2022-09-22T20:46:46.841Z,97204.00
2022-09-22T20:49:15.115Z,97216.00
2022-09-22T20:51:42.681Z,97209.00
2022-09-22T20:54:10.218Z,97211.00
2022-09-22T20:56:41.935Z,97205.00
2022-09-22T20:59:10.044Z,97203.00
2022-09-22T21:01:37.248Z,97200.00
2022-09-22T21:04:04.876Z,97207.00
2022-09-22T21:06:32.003Z,97202.00
2022-09-22T21:09:18.113Z,97199.00
2022-09-22T21:11:45.347Z,97198.00
2022-09-22T21:14:12.738Z,97183.00
2022-09-22T21:16:40.006Z,97188.00
2022-09-22T21:19:08.214Z,97189.00
2022-09-22T21:21:37.733Z,97191.00
2022-09-22T21:24:05.065Z,97190.00
2022-09-22T21:26:32.925Z,97183.00
2022-09-22T21:29:00.247Z,97186.00
2022-09-22T21:31:27.596Z,97181.00
2022-09-22T21:33:54.879Z,97191.00
2022-09-22T21:36:23.569Z,97177.00
2022-09-22T21:38:58.539Z,97187.00
2022-09-22T21:41:27.700Z,97187.00
2022-09-22T21:43:55.478Z,97181.00
2022-09-22T21:46:25.166Z,97182.00
2022-09-22T21:49:01.413Z,97178.00
2022-09-22T21:51:34.190Z,97174.00
2022-09-22T21:54:05.282Z,97180.00
2022-09-22T21:56:33.912Z,97180.00
2022-09-22T21:59:03.163Z,97176.00
2022-09-22T22:01:32.997Z,97174.00
2022-09-22T22:04:01.570Z,97183.00
2022-09-22T22:06:31.091Z,97168.00
2022-09-22T22:09:01.400Z,97177.00
2022-09-22T22:11:34.718Z,97175.00
2022-09-22T22:14:03.874Z,97171.00
2022-09-22T22:16:45.305Z,97174.00
2022-09-22T22:19:18.001Z,97174.00
2022-09-22T22:21:46.269Z,97168.00
2022-09-22T22:24:18.190Z,97165.00
2022-09-22T22:26:47.565Z,97167.00
2022-09-22T22:29:15.374Z,97167.00
2022-09-22T22:31:43.558Z,97163.00
2022-09-22T22:34:12.292Z,97170.00
2022-09-22T22:36:40.187Z,97167.00
2022-09-22T22:39:07.552Z,97166.00
2022-09-22T22:41:34.693Z,97164.00
2022-09-22T22:44:02.321Z,97167.00
2022-09-22T22:46:29.971Z,97168.00
2022-09-22T22:48:57.633Z,97164.00
2022-09-22T22:51:25.216Z,97168.00
2022-09-22T22:53:55.496Z,97157.00
2022-09-22T22:56:25.435Z,97157.00
2022-09-22T22:58:53.511Z,97154.00
2022-09-22T23:01:22.536Z,97161.00
2022-09-22T23:04:09.969Z,97161.00
2022-09-22T23:06:39.616Z,97155.00
2022-09-22T23:09:09.722Z,97156.00
2022-09-22T23:11:39.774Z,97157.00
2022-09-22T23:14:09.295Z,97151.00
2022-09-22T23:16:43.072Z,97150.00
2022-09-22T23:19:13.330Z,97152.00
2022-09-22T23:21:40.847Z,97150.00
2022-09-22T23:24:08.573Z,97144.00
2022-09-22T23:26:37.320Z,97149.00
2022-09-22T23:29:04.907Z,97147.00
2022-09-22T23:31:32.085Z,97147.00
2022-09-22T23:33:59.371Z,97135.00
2022-09-22T23:36:28.110Z,97144.00
2022-09-22T23:38:57.088Z,97139.00
2022-09-22T23:41:24.551Z,97140.00
2022-09-22T23:43:51.723Z,97139.00
2022-09-22T23:46:20.762Z,97134.00
2022-09-22T23:48:48.205Z,97141.00
2022-09-22T23:51:15.681Z,97143.00
2022-09-22T23:53:42.975Z,97132.00
2022-09-22T23:56:10.186Z,97138.00
2022-09-22T23:58:38.860Z,97134.00
